createdAt,value
2016-07-07T00:00:21.882Z,88.8
2016-07-07T00:01:21.894Z,89
2016-07-07T00:02:21.942Z,89.18
2016-07-07T00:03:21.953Z,89.09
2016-07-07T00:04:21.856Z,89.04
2016-07-07T00:05:21.841Z,89.04
2016-07-07T00:06:21.644Z,89.52
2016-07-07T00:07:21.856Z,89.23
2016-07-07T00:08:21.842Z,89.42
2016-07-07T00:09:21.827Z,89.9
2016-07-07T00:10:21.818Z,89.33
2016-07-07T00:11:21.924Z,90.09
2016-07-07T00:12:21.848Z,89.52
2016-07-07T00:13:21.820Z,89.8
2016-07-07T00:14:21.594Z,90.19
2016-07-07T00:15:21.819Z,90.19
2016-07-07T00:16:21.640Z,90.09
2016-07-07T00:17:21.833Z,90.56
2016-07-07T00:18:21.527Z,90.19
2016-07-07T00:19:21.593Z,90.19
2016-07-07T00:20:21.733Z,90.09
2016-07-07T00:21:21.740Z,90.28
2016-07-07T00:22:21.733Z,90.37
2016-07-07T00:23:21.692Z,90.19
2016-07-07T00:24:21.825Z,90.09
2016-07-07T00:25:21.664Z,90.28
2016-07-07T00:26:21.700Z,90.75
2016-07-07T00:27:21.695Z,90.47
2016-07-07T00:28:21.642Z,89.8
2016-07-07T00:29:21.765Z,89.71
2016-07-07T00:30:21.742Z,89.61
2016-07-07T00:31:21.410Z,89.33
2016-07-07T00:32:21.596Z,90.09
2016-07-07T00:33:21.491Z,90.19
2016-07-07T00:34:21.470Z,90
2016-07-07T00:35:21.506Z,90.28
2016-07-07T00:36:21.401Z,90
2016-07-07T00:37:21.587Z,90.56
2016-07-07T00:38:21.555Z,90.37
2016-07-07T00:39:21.577Z,90.85
2016-07-07T00:40:21.563Z,90.94
2016-07-07T00:41:21.347Z,90.94
2016-07-07T00:42:21.633Z,90.75
2016-07-07T00:43:21.540Z,90.19
2016-07-07T00:44:21.519Z,90.94
2016-07-07T00:45:21.507Z,90.28
2016-07-07T00:46:21.300Z,90.75
2016-07-07T00:47:21.541Z,90.85
2016-07-07T00:48:21.493Z,90.85
2016-07-07T00:49:21.477Z,90.75
2016-07-07T00:50:21.577Z,90.94
2016-07-07T00:51:21.319Z,90.75
2016-07-07T00:52:21.452Z,90.85
2016-07-07T00:53:21.452Z,90.85
2016-07-07T00:54:21.520Z,90.94
2016-07-07T00:55:21.389Z,90.47
2016-07-07T00:56:21.213Z,90.85
2016-07-07T00:57:21.414Z,90.75
2016-07-07T00:58:21.391Z,90.75
2016-07-07T00:59:21.391Z,90.75
2016-07-07T01:00:21.260Z,91.13
2016-07-07T01:01:21.182Z,91.04
2016-07-07T01:02:21.473Z,90.85
2016-07-07T01:03:21.148Z,90.75
2016-07-07T01:04:21.320Z,90.85
2016-07-07T01:05:21.118Z,90.75
2016-07-07T01:06:21.192Z,90.66
2016-07-07T01:07:21.301Z,91.04
2016-07-07T01:08:21.364Z,90.66
2016-07-07T01:09:21.398Z,91.13
2016-07-07T01:10:21.347Z,90.94
2016-07-07T01:11:21.088Z,91.13
2016-07-07T01:12:21.249Z,90.85
2016-07-07T01:13:21.319Z,90.75
2016-07-07T01:14:21.053Z,90.66
2016-07-07T01:15:21.269Z,90.66
2016-07-07T01:16:21.217Z,90.75
2016-07-07T01:17:21.221Z,90.85
2016-07-07T01:18:21.302Z,90.75
2016-07-07T01:19:21.110Z,90.85
2016-07-07T01:20:21.194Z,91.04
2016-07-07T01:21:21.098Z,90.85
2016-07-07T01:22:21.185Z,90.85
2016-07-07T01:23:21.246Z,91.23
2016-07-07T01:24:21.169Z,91.52
2016-07-07T01:25:21.160Z,91.33
2016-07-07T01:26:21.203Z,90.56
2016-07-07T01:27:21.149Z,91.23
2016-07-07T01:28:21.227Z,91.8
2016-07-07T01:29:20.927Z,91.23
2016-07-07T01:30:21.173Z,90.85
2016-07-07T01:31:20.912Z,91.04
2016-07-07T01:32:20.894Z,90.85
2016-07-07T01:33:20.899Z,90.75
2016-07-07T01:34:20.958Z,90.85
2016-07-07T01:35:21.050Z,91.23
2016-07-07T01:36:21.043Z,91.13
2016-07-07T01:37:21.024Z,90.85
2016-07-07T01:38:21.061Z,91.13
2016-07-07T01:39:20.852Z,91.13
2016-07-07T01:40:20.825Z,90.75
2016-07-07T01:41:20.987Z,90.75
2016-07-07T01:42:20.811Z,90.85
2016-07-07T01:43:21.009Z,91.99
2016-07-07T01:44:21.028Z,91.8
2016-07-07T01:45:20.974Z,91.13
2016-07-07T01:46:20.938Z,91.8
2016-07-07T01:47:20.747Z,91.71
2016-07-07T01:48:20.721Z,91.71
2016-07-07T01:49:20.739Z,92.08
2016-07-07T01:50:20.943Z,92.18
2016-07-07T01:51:20.907Z,91.71
2016-07-07T01:52:20.917Z,91.42
2016-07-07T01:53:20.717Z,92.27
2016-07-07T01:54:20.871Z,92.37
2016-07-07T01:55:20.870Z,92.56
2016-07-07T01:56:20.890Z,92.56
2016-07-07T01:57:20.794Z,92.37
2016-07-07T01:58:20.856Z,92.46
2016-07-07T01:59:20.665Z,92.46
2016-07-07T02:00:20.727Z,92.37
2016-07-07T02:01:20.817Z,92.56
2016-07-07T02:02:20.822Z,92.37
2016-07-07T02:03:20.835Z,92.27
2016-07-07T02:04:20.693Z,92.37
2016-07-07T02:05:20.596Z,92.18
2016-07-07T02:06:20.786Z,92.75
2016-07-07T02:07:20.803Z,92.75
2016-07-07T02:08:20.830Z,92.56
2016-07-07T02:09:20.761Z,92.37
2016-07-07T02:10:20.741Z,93.41
2016-07-07T02:11:20.635Z,93.23
2016-07-07T02:12:20.541Z,92.94
2016-07-07T02:13:20.778Z,92.94
2016-07-07T02:14:20.725Z,93.04
2016-07-07T02:15:20.731Z,92.94
2016-07-07T02:16:20.723Z,92.94
2016-07-07T02:17:20.717Z,92.75
2016-07-07T02:18:20.702Z,92.94
2016-07-07T02:19:20.697Z,93.04
2016-07-07T02:20:20.660Z,93.08
2016-07-07T02:21:20.671Z,92.61
2016-07-07T02:22:20.549Z,92.41
2016-07-07T02:23:20.657Z,92.61
2016-07-07T02:24:20.621Z,92.41
2016-07-07T02:25:20.497Z,91.94
2016-07-07T02:26:20.599Z,92.03
2016-07-07T02:27:20.610Z,91.28
2016-07-07T02:28:20.397Z,91.94
2016-07-07T02:29:20.403Z,91.94
2016-07-07T02:30:20.564Z,91.66
2016-07-07T02:31:20.551Z,91.75
2016-07-07T02:32:20.584Z,91.66
2016-07-07T02:33:20.637Z,90.99
2016-07-07T02:34:20.435Z,91.08
2016-07-07T02:35:20.406Z,90.75
2016-07-07T02:36:20.530Z,90.94
2016-07-07T02:37:20.297Z,91.03
2016-07-07T02:38:20.566Z,90.75
2016-07-07T02:39:20.478Z,90.84
2016-07-07T02:40:20.486Z,90.84
2016-07-07T02:41:20.456Z,90.56
2016-07-07T02:42:20.543Z,90.47
2016-07-07T02:43:20.446Z,90.47
2016-07-07T02:44:20.469Z,90.08
2016-07-07T02:45:20.439Z,90.28
2016-07-07T02:46:20.438Z,90.47
2016-07-07T02:47:20.451Z,90.37
2016-07-07T02:48:20.307Z,91.13
2016-07-07T02:49:20.405Z,90.47
2016-07-07T02:50:20.320Z,90.94
2016-07-07T02:51:20.363Z,90.84
2016-07-07T02:52:20.373Z,90.84
2016-07-07T02:53:20.381Z,90.84
2016-07-07T02:54:20.377Z,90.84
2016-07-07T02:55:20.169Z,90.37
2016-07-07T02:56:20.364Z,90.37
2016-07-07T02:57:20.161Z,90.84
2016-07-07T02:58:20.242Z,90.84
2016-07-07T02:59:20.324Z,91.13
2016-07-07T03:00:20.328Z,90.56
2016-07-07T03:01:20.190Z,90.84
2016-07-07T03:02:20.308Z,90.75
2016-07-07T03:03:20.317Z,90.94
2016-07-07T03:04:20.096Z,90.94
2016-07-07T03:05:20.171Z,90.94
2016-07-07T03:06:20.172Z,90.99
2016-07-07T03:07:20.281Z,91.56
2016-07-07T03:08:20.154Z,90.8
2016-07-07T03:09:20.158Z,91.17
2016-07-07T03:10:20.164Z,90.51
2016-07-07T03:11:20.113Z,90.99
2016-07-07T03:12:20.252Z,91.17
2016-07-07T03:13:20.230Z,90.61
2016-07-07T03:14:20.239Z,90.89
2016-07-07T03:15:20.239Z,90.89
2016-07-07T03:16:20.216Z,90.61
2016-07-07T03:17:20.319Z,90.99
2016-07-07T03:18:20.009Z,90.51
2016-07-07T03:19:20.064Z,90.03
2016-07-07T03:20:20.061Z,90.89
2016-07-07T03:21:20.069Z,90.51
2016-07-07T03:22:20.044Z,89.94
2016-07-07T03:23:20.039Z,90.03
2016-07-07T03:24:20.028Z,89.94
2016-07-07T03:25:20.054Z,90.13
2016-07-07T03:26:20.043Z,90.32
2016-07-07T03:27:20.051Z,89.27
2016-07-07T03:28:19.914Z,89.65
2016-07-07T03:29:20.124Z,89.61
2016-07-07T03:30:19.924Z,89.47
2016-07-07T03:31:20.006Z,89.75
2016-07-07T03:32:20.135Z,90.17
2016-07-07T03:33:19.993Z,89.98
2016-07-07T03:34:19.953Z,89.94
2016-07-07T03:35:19.947Z,90.17
2016-07-07T03:36:19.956Z,90.17
2016-07-07T03:37:19.958Z,90.17
2016-07-07T03:38:19.950Z,90.08
2016-07-07T03:39:19.962Z,90.17
2016-07-07T03:40:19.930Z,89.51
2016-07-07T03:41:20.015Z,89.61
2016-07-07T03:42:19.935Z,89.32
2016-07-07T03:43:20.120Z,89.22
2016-07-07T03:44:19.889Z,89.51
2016-07-07T03:45:20.105Z,88.65
2016-07-07T03:46:19.951Z,89.03
2016-07-07T03:47:19.871Z,88.56
2016-07-07T03:48:19.866Z,88.93
2016-07-07T03:49:19.868Z,89.22
2016-07-07T03:50:19.919Z,89.46
2016-07-07T03:51:20.367Z,89.17
2016-07-07T03:52:19.818Z,89.36
2016-07-07T03:53:19.950Z,88.27
2016-07-07T03:54:19.816Z,88.46
2016-07-07T03:55:19.812Z,88.12
2016-07-07T03:56:19.720Z,87.89
2016-07-07T03:57:19.808Z,87.89
2016-07-07T03:58:19.816Z,88.27
2016-07-07T03:59:19.777Z,87.89
2016-07-07T04:00:20.408Z,87.98
2016-07-07T04:01:19.787Z,87.41
2016-07-07T04:02:19.669Z,87.32
2016-07-07T04:03:19.670Z,87.32
2016-07-07T04:04:19.741Z,87.32
2016-07-07T04:05:19.915Z,87.7
2016-07-07T04:06:19.742Z,87.6
2016-07-07T04:07:19.719Z,87.32
2016-07-07T04:08:19.746Z,88.08
2016-07-07T04:09:19.830Z,87.79
2016-07-07T04:10:19.832Z,88.75
2016-07-07T04:11:19.726Z,87.7
2016-07-07T04:12:19.681Z,88.27
2016-07-07T04:13:19.728Z,88.37
2016-07-07T04:14:19.667Z,88.27
2016-07-07T04:15:19.672Z,88.56
2016-07-07T04:16:19.768Z,89.13
2016-07-07T04:17:19.665Z,88.99
2016-07-07T04:18:19.636Z,89.13
2016-07-07T04:19:19.640Z,89.32
2016-07-07T04:20:19.749Z,89.22
2016-07-07T04:21:19.612Z,89.37
2016-07-07T04:22:19.617Z,89.56
2016-07-07T04:23:19.595Z,89.37
2016-07-07T04:24:19.756Z,89.65
2016-07-07T04:25:19.815Z,89.32
2016-07-07T04:26:19.578Z,89.98
2016-07-07T04:27:19.719Z,89.98
2016-07-07T04:28:19.569Z,89.94
2016-07-07T04:29:19.558Z,90.32
2016-07-07T04:30:19.459Z,90.08
2016-07-07T04:31:19.530Z,90.36
2016-07-07T04:32:19.666Z,89.79
2016-07-07T04:33:19.537Z,89.98
2016-07-07T04:34:19.531Z,89.79
2016-07-07T04:35:19.525Z,89.89
2016-07-07T04:36:19.535Z,89.51
2016-07-07T04:37:19.500Z,89.75
2016-07-07T04:38:19.500Z,89.75
2016-07-07T04:39:19.496Z,89.07
2016-07-07T04:40:19.369Z,89.17
2016-07-07T04:41:19.482Z,88.7
2016-07-07T04:42:19.462Z,88.7
2016-07-07T04:43:19.426Z,88.6
2016-07-07T04:44:19.566Z,88.7
2016-07-07T04:45:19.441Z,88.79
2016-07-07T04:46:19.430Z,88.6
2016-07-07T04:47:19.457Z,89.17
2016-07-07T04:48:19.633Z,88.22
2016-07-07T04:49:19.518Z,88.6
2016-07-07T04:50:19.413Z,88.41
2016-07-07T04:51:19.399Z,88.12
2016-07-07T04:52:19.303Z,87.84
2016-07-07T04:53:19.307Z,87.31
2016-07-07T04:54:19.290Z,87.02
2016-07-07T04:55:19.387Z,87.31
2016-07-07T04:56:19.366Z,88.17
2016-07-07T04:57:19.366Z,88.36
2016-07-07T04:58:19.346Z,87.88
2016-07-07T04:59:19.349Z,87.6
2016-07-07T05:00:19.341Z,86.93
2016-07-07T05:01:19.498Z,86.36
2016-07-07T05:02:19.371Z,86.65
2016-07-07T05:03:19.365Z,86.36
2016-07-07T05:04:19.309Z,86.07
2016-07-07T05:05:19.337Z,86.55
2016-07-07T05:06:19.311Z,86.07
2016-07-07T05:07:19.287Z,86.16
2016-07-07T05:08:19.311Z,87.5
2016-07-07T05:09:19.404Z,87.12
2016-07-07T05:10:19.286Z,86.16
2016-07-07T05:11:19.280Z,85.78
2016-07-07T05:12:19.301Z,85.6
2016-07-07T05:13:19.281Z,85.97
2016-07-07T05:14:19.263Z,84.92
2016-07-07T05:15:19.186Z,84.83
2016-07-07T05:16:19.381Z,84.26
2016-07-07T05:17:19.146Z,83.97
2016-07-07T05:18:19.243Z,83.21
2016-07-07T05:19:19.230Z,83.78
2016-07-07T05:20:19.347Z,83.44
2016-07-07T05:21:19.356Z,82.97
2016-07-07T05:22:19.128Z,83.92
2016-07-07T05:23:19.126Z,83.16
2016-07-07T05:24:19.204Z,83.06
2016-07-07T05:25:19.212Z,83.73
2016-07-07T05:26:19.207Z,83.2
2016-07-07T05:27:19.110Z,82.63
2016-07-07T05:28:19.216Z,82.15
2016-07-07T05:29:19.191Z,82.82
2016-07-07T05:30:19.077Z,82.72
2016-07-07T05:31:19.270Z,82.91
2016-07-07T05:32:19.074Z,82.63
2016-07-07T05:33:19.155Z,82.68
2016-07-07T05:34:19.162Z,82.15
2016-07-07T05:35:19.065Z,82.2
2016-07-07T05:36:19.246Z,82.59
2016-07-07T05:37:19.038Z,82.11
2016-07-07T05:38:19.267Z,81.44
2016-07-07T05:39:19.238Z,81.06
2016-07-07T05:40:19.282Z,80.15
2016-07-07T05:41:19.198Z,80.53
2016-07-07T05:42:18.995Z,80.33
2016-07-07T05:43:19.090Z,81.38
2016-07-07T05:44:19.081Z,81.67
2016-07-07T05:45:19.079Z,81.29
2016-07-07T05:46:19.093Z,81.67
2016-07-07T05:47:18.988Z,80.62
2016-07-07T05:48:19.060Z,80.53
2016-07-07T05:49:19.224Z,80.05
2016-07-07T05:50:19.047Z,79.67
2016-07-07T05:51:19.215Z,78.85
2016-07-07T05:52:18.937Z,78.85
2016-07-07T05:53:19.126Z,79.04
2016-07-07T05:54:19.227Z,79.23
2016-07-07T05:55:19.148Z,78.47
2016-07-07T05:56:19.078Z,77.99
2016-07-07T05:57:18.970Z,78.09
2016-07-07T05:58:19.187Z,77.84
2016-07-07T05:59:19.009Z,76.98
2016-07-07T06:00:19.000Z,76.79
2016-07-07T06:01:19.013Z,77.08
2016-07-07T06:02:19.078Z,76.88
2016-07-07T06:03:18.994Z,76.03
2016-07-07T06:04:19.111Z,75.64
2016-07-07T06:05:18.975Z,75.83
2016-07-07T06:06:19.109Z,74.69
2016-07-07T06:07:19.054Z,75.26
2016-07-07T06:08:19.056Z,73.96
2016-07-07T06:09:18.937Z,73
2016-07-07T06:10:19.110Z,72.33
2016-07-07T06:11:19.114Z,71.86
2016-07-07T06:12:18.940Z,72.37
2016-07-07T06:13:19.052Z,71.7
2016-07-07T06:14:19.047Z,72.75
2016-07-07T06:15:18.920Z,73.52
2016-07-07T06:16:19.048Z,73.43
2016-07-07T06:17:19.032Z,73.8
2016-07-07T06:18:18.925Z,73.71
2016-07-07T06:19:19.012Z,73.33
2016-07-07T06:20:19.008Z,73.46
2016-07-07T06:21:19.006Z,73.55
2016-07-07T06:22:18.989Z,72.69
2016-07-07T06:23:19.004Z,71.83
2016-07-07T06:24:18.920Z,71.64
2016-07-07T06:25:18.983Z,70.4
2016-07-07T06:26:18.874Z,67.63
2016-07-07T06:27:18.896Z,67.43
2016-07-07T06:28:18.890Z,67.91
2016-07-07T06:29:19.055Z,69.06
2016-07-07T06:30:18.965Z,68.96
2016-07-07T06:31:18.870Z,69.35
2016-07-07T06:32:18.879Z,70.3
2016-07-07T06:33:18.973Z,69.92
2016-07-07T06:34:18.872Z,70.3
2016-07-07T06:35:18.955Z,70.4
2016-07-07T06:36:18.746Z,69.44
2016-07-07T06:37:18.853Z,69.15
2016-07-07T06:38:18.940Z,69.15
2016-07-07T06:39:18.829Z,69.64
2016-07-07T06:40:18.833Z,69.67
2016-07-07T06:41:18.812Z,68.13
2016-07-07T06:42:18.985Z,67.66
2016-07-07T06:43:19.000Z,67.56
2016-07-07T06:44:18.910Z,67.18
2016-07-07T06:45:18.906Z,67.85
2016-07-07T06:46:18.910Z,68.42
2016-07-07T06:47:18.805Z,69.76
2016-07-07T06:48:18.716Z,69.48
2016-07-07T06:49:18.800Z,69.57
2016-07-07T06:50:18.786Z,69.7
2016-07-07T06:51:18.888Z,68.46
2016-07-07T06:52:18.797Z,66.35
2016-07-07T06:53:18.781Z,65.97
2016-07-07T06:54:18.866Z,65.68
2016-07-07T06:55:18.814Z,64.09
2016-07-07T06:56:18.898Z,61.11
2016-07-07T06:57:18.770Z,61.24
2016-07-07T06:58:18.865Z,58.14
2016-07-07T06:59:18.743Z,55.99
2016-07-07T07:00:18.879Z,53.06
2016-07-07T07:01:18.762Z,50.68
2016-07-07T07:02:18.758Z,46.69
2016-07-07T07:03:18.763Z,45.94
2016-07-07T07:04:18.674Z,46.47
2016-07-07T07:05:18.860Z,46.97
2016-07-07T07:06:18.751Z,47.17
2016-07-07T07:07:18.881Z,45.45
2016-07-07T07:08:18.744Z,46.25
2016-07-07T07:09:18.845Z,43.47
2016-07-07T07:10:18.758Z,42.04
2016-07-07T07:11:18.893Z,41.99
2016-07-07T07:12:18.734Z,36.88
2016-07-07T07:13:18.777Z,34.28
2016-07-07T07:14:18.759Z,33.72
2016-07-07T07:15:18.754Z,30.73
2016-07-07T07:16:18.768Z,30.55
2016-07-07T07:17:18.752Z,31.53
2016-07-07T07:18:18.771Z,31.65
2016-07-07T07:19:18.856Z,27.78
2016-07-07T07:20:18.756Z,31.77
2016-07-07T07:21:18.845Z,29.54
2016-07-07T07:22:18.886Z,33.06
2016-07-07T07:23:18.771Z,33.25
2016-07-07T07:24:18.948Z,29.15
2016-07-07T07:25:18.895Z,29.02
2016-07-07T07:26:18.874Z,29.77
2016-07-07T07:27:18.910Z,30.35
2016-07-07T07:28:18.876Z,30.65
2016-07-07T07:29:18.788Z,32.18
2016-07-07T07:30:19.005Z,32.84
2016-07-07T07:31:18.790Z,32.57
2016-07-07T07:32:18.721Z,31.23
2016-07-07T07:33:18.977Z,31.63
2016-07-07T07:34:18.819Z,32.39
2016-07-07T07:35:18.949Z,32.75
2016-07-07T07:36:18.924Z,34.38
2016-07-07T07:37:18.949Z,33.01
2016-07-07T07:38:18.918Z,35.49
2016-07-07T07:39:18.831Z,37.79
2016-07-07T07:40:18.955Z,37.38
2016-07-07T07:41:19.001Z,35.36
2016-07-07T07:42:18.753Z,34.7
2016-07-07T07:43:18.934Z,34.04
2016-07-07T07:44:18.927Z,35.97
2016-07-07T07:45:18.967Z,36.92
2016-07-07T07:46:18.968Z,39.32
2016-07-07T07:47:18.820Z,40.63
2016-07-07T07:48:19.040Z,40.65
2016-07-07T07:49:18.860Z,39.34
2016-07-07T07:50:18.963Z,40.05
2016-07-07T07:51:18.772Z,37.98
2016-07-07T07:52:18.980Z,37.23
2016-07-07T07:53:18.989Z,33.09
2016-07-07T07:54:18.997Z,30.95
2016-07-07T07:55:18.792Z,27.86
2016-07-07T07:56:18.792Z,29.5
2016-07-07T07:57:19.068Z,30.73
2016-07-07T07:58:18.808Z,32.81
2016-07-07T07:59:18.798Z,34.13
2016-07-07T08:00:18.815Z,36.52
2016-07-07T08:01:19.082Z,39.09
2016-07-07T08:02:18.827Z,40.78
2016-07-07T08:03:19.016Z,40.37
2016-07-07T08:04:19.018Z,40.3
2016-07-07T08:05:19.144Z,38.91
2016-07-07T08:06:19.098Z,35.86
2016-07-07T08:07:18.842Z,35.41
2016-07-07T08:08:18.848Z,36.18
2016-07-07T08:09:19.033Z,33.29
2016-07-07T08:10:19.058Z,33.49
2016-07-07T08:11:19.024Z,32.24
2016-07-07T08:12:18.937Z,31.46
2016-07-07T08:13:18.937Z,31.43
2016-07-07T08:14:18.849Z,31.43
2016-07-07T08:15:19.126Z,31.16
2016-07-07T08:16:19.016Z,32.44
2016-07-07T08:17:19.050Z,33.7
2016-07-07T08:18:19.011Z,34.84
2016-07-07T08:19:18.963Z,35.6
2016-07-07T08:20:18.864Z,35.88
2016-07-07T08:21:19.066Z,38.35
2016-07-07T08:22:19.096Z,36.59
2016-07-07T08:23:18.935Z,38.58
2016-07-07T08:24:19.056Z,40.69
2016-07-07T08:25:19.126Z,39.79
2016-07-07T08:26:19.075Z,39.87
2016-07-07T08:27:19.143Z,39.59
2016-07-07T08:28:18.998Z,44.62
2016-07-07T08:29:18.992Z,38.58
2016-07-07T08:30:18.895Z,35.52
2016-07-07T08:31:18.907Z,36.21
2016-07-07T08:32:19.119Z,40.45
2016-07-07T08:33:19.179Z,41.23
2016-07-07T08:34:19.201Z,46.08
2016-07-07T08:35:19.091Z,44.07
2016-07-07T08:36:19.025Z,39.82
2016-07-07T08:37:19.090Z,36.71
2016-07-07T08:38:18.923Z,36.21
2016-07-07T08:39:19.105Z,37.06
2016-07-07T08:40:19.125Z,36.48
2016-07-07T08:41:19.116Z,37.13
2016-07-07T08:42:19.123Z,38.08
2016-07-07T08:43:19.084Z,42.79
2016-07-07T08:44:19.104Z,40.37
2016-07-07T08:45:19.167Z,40.64
2016-07-07T08:46:19.002Z,41.51
2016-07-07T08:47:19.126Z,43.03
2016-07-07T08:48:18.983Z,42.91
2016-07-07T08:49:19.086Z,44.24
2016-07-07T08:50:19.123Z,43.66
2016-07-07T08:51:19.123Z,43.57
2016-07-07T08:52:18.998Z,43.85
2016-07-07T08:53:19.611Z,44.05
2016-07-07T08:54:19.153Z,45.01
2016-07-07T08:55:19.125Z,45.2
2016-07-07T08:56:19.109Z,42.72
2016-07-07T08:57:18.996Z,40.7
2016-07-07T08:58:19.105Z,41.86
2016-07-07T08:59:19.112Z,41.76
2016-07-07T09:00:19.112Z,42.82
2016-07-07T09:01:18.996Z,43.2
2016-07-07T09:02:19.099Z,42.99
2016-07-07T09:03:19.097Z,44.12
2016-07-07T09:04:19.122Z,44.79
2016-07-07T09:05:19.136Z,44.29
2016-07-07T09:06:18.993Z,44.2
2016-07-07T09:07:19.155Z,44.96
2016-07-07T09:08:19.103Z,43.91
2016-07-07T09:09:19.110Z,44.7
2016-07-07T09:10:19.028Z,46.04
2016-07-07T09:11:19.108Z,47
2016-07-07T09:12:19.187Z,44.14
2016-07-07T09:13:18.999Z,44.45
2016-07-07T09:14:19.000Z,41.86
2016-07-07T09:15:18.994Z,42.63
2016-07-07T09:16:18.923Z,41.38
2016-07-07T09:17:18.925Z,41.64
2016-07-07T09:18:19.192Z,43.76
2016-07-07T09:19:19.130Z,43.47
2016-07-07T09:20:18.928Z,44.24
2016-07-07T09:21:18.920Z,45.49
2016-07-07T09:22:19.121Z,43.78
2016-07-07T09:23:19.082Z,40.7
2016-07-07T09:24:19.171Z,41.86
2016-07-07T09:25:18.924Z,39.26
2016-07-07T09:26:18.930Z,40.8
2016-07-07T09:27:18.917Z,41.76
2016-07-07T09:28:18.911Z,43.11
2016-07-07T09:29:18.908Z,46.21
2016-07-07T09:30:18.923Z,41.97
2016-07-07T09:31:18.918Z,40.36
2016-07-07T09:32:18.915Z,39.59
2016-07-07T09:33:18.921Z,40.26
2016-07-07T09:34:18.918Z,41.13
2016-07-07T09:35:18.930Z,41.8
2016-07-07T09:36:18.918Z,43.54
2016-07-07T09:37:18.921Z,41.3
2016-07-07T09:38:18.922Z,40.14
2016-07-07T09:39:18.924Z,41.95
2016-07-07T09:40:18.912Z,43.2
2016-07-07T09:41:18.915Z,44.14
2016-07-07T09:42:18.938Z,43.66
2016-07-07T09:43:18.939Z,44.51
2016-07-07T09:44:18.916Z,45.08
2016-07-07T09:45:18.922Z,44.02
2016-07-07T09:46:18.919Z,42.58
2016-07-07T09:47:18.914Z,43.35
2016-07-07T09:48:18.935Z,42.87
2016-07-07T09:49:18.920Z,43.35
2016-07-07T09:50:18.908Z,43.95
2016-07-07T09:51:18.911Z,41.74
2016-07-07T09:52:18.932Z,40.61
2016-07-07T09:53:18.912Z,46.95
2016-07-07T09:54:18.934Z,44.17
2016-07-07T09:55:18.930Z,41.76
2016-07-07T09:56:18.936Z,40.91
2016-07-07T09:57:18.907Z,41.88
2016-07-07T09:58:18.927Z,44.57
2016-07-07T09:59:18.943Z,42.76
2016-07-07T10:00:18.907Z,36.79
2016-07-07T10:01:18.933Z,41.71
2016-07-07T10:02:18.914Z,40.64
2016-07-07T10:03:18.928Z,39.49
2016-07-07T10:04:18.924Z,37.37
2016-07-07T10:05:18.925Z,38.53
2016-07-07T10:06:18.909Z,37.56
2016-07-07T10:07:18.915Z,39.56
2016-07-07T10:08:18.937Z,40.8
2016-07-07T10:09:19.031Z,38.78
2016-07-07T10:10:19.128Z,39.91
2016-07-07T10:11:19.173Z,40.66
2016-07-07T10:12:19.017Z,44.48
2016-07-07T10:13:19.187Z,41.22
2016-07-07T10:14:19.116Z,41.22
2016-07-07T10:15:18.924Z,42.18
2016-07-07T10:16:19.110Z,40.83
2016-07-07T10:17:19.039Z,43.62
2016-07-07T10:18:18.936Z,43.33
2016-07-07T10:19:19.134Z,41.99
2016-07-07T10:20:18.999Z,40.62
2016-07-07T10:21:19.085Z,39.39
2016-07-07T10:22:19.004Z,40.64
2016-07-07T10:23:18.930Z,43.71
2016-07-07T10:24:19.005Z,44.89
2016-07-07T10:25:18.924Z,44.51
2016-07-07T10:26:19.091Z,45.68
2016-07-07T10:27:19.105Z,43.57
2016-07-07T10:28:18.955Z,39.24
2016-07-07T10:29:19.038Z,40.61
2016-07-07T10:30:19.106Z,39.24
2016-07-07T10:31:19.184Z,40.58
2016-07-07T10:32:19.134Z,41.26
2016-07-07T10:33:18.888Z,40.68
2016-07-07T10:34:18.896Z,40.58
2016-07-07T10:35:19.184Z,37.81
2016-07-07T10:36:19.172Z,37.32
2016-07-07T10:37:18.901Z,41.55
2016-07-07T10:38:18.924Z,44.05
2016-07-07T10:39:19.142Z,47.13
2016-07-07T10:40:19.139Z,39.62
2016-07-07T10:41:19.093Z,36.16
2016-07-07T10:42:19.104Z,35.77
2016-07-07T10:43:18.908Z,36.93
2016-07-07T10:44:19.106Z,37.99
2016-07-07T10:45:19.129Z,40.97
2016-07-07T10:46:18.989Z,39.93
2016-07-07T10:47:19.098Z,38.2
2016-07-07T10:48:18.919Z,35.31
2016-07-07T10:49:18.914Z,36.95
2016-07-07T10:50:19.121Z,36.16
2016-07-07T10:51:19.125Z,36.85
2016-07-07T10:52:19.121Z,36.74
2016-07-07T10:53:18.916Z,37.6
2016-07-07T10:54:19.088Z,39.62
2016-07-07T10:55:19.099Z,41.45
2016-07-07T10:56:19.091Z,40.58
2016-07-07T10:57:19.179Z,41.45
2016-07-07T10:58:18.911Z,43.11
2016-07-07T10:59:18.930Z,41.93
2016-07-07T11:00:19.182Z,44.17
2016-07-07T11:01:19.164Z,42.05
2016-07-07T11:02:19.080Z,42.8
2016-07-07T11:03:19.068Z,39.53
2016-07-07T11:04:19.205Z,36.25
2016-07-07T11:05:19.109Z,36.16
2016-07-07T11:06:18.998Z,37.02
2016-07-07T11:07:19.165Z,35.77
2016-07-07T11:08:19.105Z,36.62
2016-07-07T11:09:19.104Z,36.83
2016-07-07T11:10:19.127Z,37.6
2016-07-07T11:11:19.164Z,40.58
2016-07-07T11:12:19.173Z,44.05
2016-07-07T11:13:19.088Z,42.5
2016-07-07T11:14:18.998Z,36.85
2016-07-07T11:15:18.997Z,35.89
2016-07-07T11:16:19.071Z,35.12
2016-07-07T11:17:18.909Z,35.41
2016-07-07T11:18:19.096Z,34.64
2016-07-07T11:19:18.909Z,33.67
2016-07-07T11:20:18.900Z,36.16
2016-07-07T11:21:18.940Z,36.95
2016-07-07T11:22:18.924Z,36.25
2016-07-07T11:23:18.979Z,37.79
2016-07-07T11:24:18.942Z,36.16
2016-07-07T11:25:18.900Z,37.51
2016-07-07T11:26:18.917Z,37.51
2016-07-07T11:27:18.904Z,37.32
2016-07-07T11:28:18.886Z,37.41
2016-07-07T11:29:18.909Z,35.49
2016-07-07T11:30:18.932Z,35
2016-07-07T11:31:18.921Z,37.32
2016-07-07T11:32:18.909Z,33.75
2016-07-07T11:33:18.908Z,35.08
2016-07-07T11:34:18.883Z,34.51
2016-07-07T11:35:18.963Z,35.47
2016-07-07T11:36:18.935Z,36.33
2016-07-07T11:37:18.924Z,36.24
2016-07-07T11:38:18.917Z,39.61
2016-07-07T11:39:18.932Z,41.05
2016-07-07T11:40:18.903Z,38.16
2016-07-07T11:41:18.963Z,37.68
2016-07-07T11:42:18.903Z,38.45
2016-07-07T11:43:18.909Z,39.22
2016-07-07T11:44:18.988Z,37.01
2016-07-07T11:45:18.944Z,38.45
2016-07-07T11:46:18.941Z,40.76
2016-07-07T11:47:18.905Z,37.1
2016-07-07T11:48:18.911Z,36.33
2016-07-07T11:49:18.935Z,36.05
2016-07-07T11:50:18.921Z,36.05
2016-07-07T11:51:18.931Z,36.6
2016-07-07T11:52:18.923Z,37.1
2016-07-07T11:53:18.929Z,35.36
2016-07-07T11:54:18.895Z,35.64
2016-07-07T11:55:18.920Z,36.03
2016-07-07T11:56:18.900Z,37.47
2016-07-07T11:57:18.930Z,38.04
2016-07-07T11:58:18.918Z,38.53
2016-07-07T11:59:19.257Z,39.39
2016-07-07T12:00:19.075Z,40.25
2016-07-07T12:01:18.971Z,39.99
2016-07-07T12:02:19.094Z,36.62
2016-07-07T12:03:19.073Z,37.3
2016-07-07T12:04:19.071Z,37.2
2016-07-07T12:05:18.892Z,38.84
2016-07-07T12:06:18.882Z,39.12
2016-07-07T12:07:19.154Z,43.35
2016-07-07T12:08:18.894Z,42.58
2016-07-07T12:09:19.141Z,40.28
2016-07-07T12:10:18.901Z,37.01
2016-07-07T12:11:19.083Z,37.49
2016-07-07T12:12:19.151Z,39.12
2016-07-07T12:13:19.152Z,36.15
2016-07-07T12:14:19.058Z,36.72
2016-07-07T12:15:19.059Z,36.24
2016-07-07T12:16:18.909Z,38.35
2016-07-07T12:17:18.915Z,38.35
2016-07-07T12:18:18.893Z,38.93
2016-07-07T12:19:18.875Z,39.22
2016-07-07T12:20:18.890Z,37.59
2016-07-07T12:21:18.901Z,36.72
2016-07-07T12:22:18.898Z,39.12
2016-07-07T12:23:18.883Z,42.97
2016-07-07T12:24:18.877Z,42.68
2016-07-07T12:25:18.877Z,42.77
2016-07-07T12:26:18.879Z,41.82
2016-07-07T12:27:18.933Z,41.91
2016-07-07T12:28:18.915Z,42.39
2016-07-07T12:29:18.917Z,42.58
2016-07-07T12:30:18.985Z,43.07
2016-07-07T12:31:18.886Z,40.56
2016-07-07T12:32:18.903Z,37.97
2016-07-07T12:33:18.916Z,37.59
2016-07-07T12:34:18.913Z,37.1
2016-07-07T12:35:18.893Z,38.35
2016-07-07T12:36:18.877Z,37.66
2016-07-07T12:37:18.875Z,38.53
2016-07-07T12:38:18.866Z,38.72
2016-07-07T12:39:18.872Z,40.35
2016-07-07T12:40:18.890Z,37.85
2016-07-07T12:41:19.052Z,38.35
2016-07-07T12:42:19.126Z,37.49
2016-07-07T12:43:18.933Z,37.39
2016-07-07T12:44:19.128Z,37.3
2016-07-07T12:45:19.048Z,37.3
2016-07-07T12:46:19.039Z,37.39
2016-07-07T12:47:18.944Z,38.16
2016-07-07T12:48:19.120Z,37.49
2016-07-07T12:49:19.123Z,37.49
2016-07-07T12:50:18.864Z,37.2
2016-07-07T12:51:21.923Z,35.95
2016-07-07T12:52:18.821Z,35.85
2016-07-07T12:53:19.026Z,35.95
2016-07-07T12:54:18.938Z,35.08
2016-07-07T12:55:18.936Z,35.18